Time;durP1;ratioP1;P1;durP2;ratioP2;P2;SDS_P1;SDS_P2;PMS_P1;PMS_P2;Temp;Humidity;BMP_temperature;BMP_pressure;BME280_temperature;BME280_humidity;BME280_pressure;Samples;Min_cycle;Max_cycle;Signal;HPM_P1;HPM_P2
2023/07/28 00:02:04;;;;;;;0.35;0.35;;;18.20;99.90;;;;;;5031664;28;20042;-72
2023/07/28 00:04:29;;;;;;;0.40;0.40;;;18.20;99.90;;;;;;5051165;28;20033;-72
2023/07/28 00:06:55;;;;;;;0.30;0.30;;;18.20;99.90;;;;;;5033603;28;20048;-71
2023/07/28 00:09:22;;;;;;;0.90;0.75;;;17.90;99.90;;;;;;5035289;28;20041;-71
2023/07/28 00:11:48;;;;;;;0.60;0.60;;;17.90;99.90;;;;;;5046092;28;20086;-71
2023/07/28 00:14:14;;;;;;;1.15;1.05;;;18.00;99.90;;;;;;5047805;28;20045;-72
2023/07/28 00:16:40;;;;;;;0.77;0.77;;;18.00;99.90;;;;;;5039547;28;20048;-75
2023/07/28 00:19:06;;;;;;;0.90;0.90;;;17.90;99.90;;;;;;5060371;28;20543;-72
2023/07/28 00:21:31;;;;;;;0.85;0.85;;;18.30;99.90;;;;;;5054484;28;20068;-72
2023/07/28 00:23:57;;;;;;;1.02;1.02;;;18.20;99.90;;;;;;5055566;28;20088;-72
2023/07/28 00:26:23;;;;;;;0.30;0.30;;;18.20;99.90;;;;;;5033307;28;20124;-72
2023/07/28 00:28:48;;;;;;;0.82;0.82;;;18.00;99.90;;;;;;5028727;28;20033;-72
2023/07/28 00:31:14;;;;;;;0.50;0.50;;;18.20;99.90;;;;;;5024789;28;20037;-72
2023/07/28 00:33:40;;;;;;;0.52;0.52;;;18.00;99.90;;;;;;5023890;28;20499;-72
2023/07/28 00:36:05;;;;;;;0.60;0.60;;;17.90;99.90;;;;;;5025419;28;20128;-72
2023/07/28 00:38:31;;;;;;;0.65;0.65;;;17.80;99.90;;;;;;5027149;28;20124;-72
2023/07/28 00:40:58;;;;;;;0.55;0.55;;;18.20;99.90;;;;;;5012126;28;20037;-72
2023/07/28 00:43:24;;;;;;;1.17;1.07;;;17.90;99.90;;;;;;5034610;28;20037;-72
2023/07/28 00:45:50;;;;;;;1.02;1.02;;;18.20;99.90;;;;;;5012836;28;20036;-72
2023/07/28 00:48:16;;;;;;;0.93;0.93;;;18.10;99.90;;;;;;5026706;28;20906;-72
2023/07/28 00:50:45;;;;;;;0.50;0.50;;;17.80;99.90;;;;;;5032732;28;20036;-72
2023/07/28 00:53:11;;;;;;;0.93;0.93;;;17.90;99.90;;;;;;5014966;28;20038;-72
2023/07/28 00:55:38;;;;;;;0.80;0.80;;;17.90;99.90;;;;;;5034458;28;21148;-72
2023/07/28 00:58:04;;;;;;;1.30;0.82;;;18.20;99.90;;;;;;5031067;28;21144;-73
2023/07/28 01:00:30;;;;;;;1.00;1.00;;;18.10;99.90;;;;;;5032052;28;20041;-72
2023/07/28 01:02:56;;;;;;;0.95;0.95;;;18.20;99.90;;;;;;5029929;28;20052;-72
2023/07/28 01:05:31;;;;;;;0.40;0.40;;;18.10;99.90;;;;;;5036071;28;20105;-72
2023/07/28 01:08:27;;;;;;;0.55;0.55;;;18.30;99.90;;;;;;5034773;28;20120;-72
2023/07/28 01:10:52;;;;;;;0.70;0.70;;;17.90;99.90;;;;;;5037387;28;20048;-72
2023/07/28 01:13:18;;;;;;;0.35;0.35;;;17.80;99.90;;;;;;5031031;28;20040;-72
2023/07/28 01:15:47;;;;;;;1.35;1.25;;;18.20;99.90;;;;;;5026288;28;20067;-72
2023/07/28 01:18:12;;;;;;;1.42;1.27;;;17.90;99.90;;;;;;5016788;28;20045;-72
2023/07/28 01:20:40;;;;;;;0.70;0.70;;;18.00;99.90;;;;;;5030103;28;20041;-72
2023/07/28 01:23:06;;;;;;;0.40;0.40;;;17.90;99.90;;;;;;5015570;28;20067;-72
2023/07/28 01:26:03;;;;;;;0.65;0.65;;;18.10;99.90;;;;;;5032632;28;20051;-72
2023/07/28 01:28:29;;;;;;;0.40;0.40;;;17.90;99.90;;;;;;5031293;28;20500;-72
2023/07/28 01:30:56;;;;;;;4.85;1.13;;;17.90;99.90;;;;;;5028727;28;20044;-72
2023/07/28 01:33:22;;;;;;;0.85;0.85;;;18.10;99.90;;;;;;5028376;28;20123;-72
2023/07/28 01:35:48;;;;;;;1.02;0.98;;;17.90;99.90;;;;;;5018284;28;20061;-72
2023/07/28 01:38:13;;;;;;;1.23;1.10;;;18.10;99.90;;;;;;5033142;28;20416;-72
2023/07/28 01:40:39;;;;;;;0.50;0.50;;;17.80;99.90;;;;;;5023829;28;20677;-72
2023/07/28 01:43:05;;;;;;;0.63;0.63;;;18.10;99.90;;;;;;5027785;28;20104;-72
2023/07/28 01:45:30;;;;;;;0.85;0.85;;;18.10;99.90;;;;;;5026201;28;20033;-72
2023/07/28 01:47:56;;;;;;;0.98;0.95;;;18.00;99.90;;;;;;5031309;28;20500;-72
2023/07/28 01:50:22;;;;;;;1.75;1.02;;;17.90;99.90;;;;;;5017090;28;20292;-72
2023/07/28 01:52:47;;;;;;;1.35;0.80;;;18.00;99.90;;;;;;5030591;28;20067;-72
2023/07/28 01:55:13;;;;;;;1.02;1.02;;;17.90;99.90;;;;;;5017422;28;20579;-72
2023/07/28 01:57:40;;;;;;;1.10;1.10;;;18.10;99.90;;;;;;5031227;28;20128;-72
2023/07/28 02:00:07;;;;;;;1.38;1.20;;;17.70;99.90;;;;;;5029258;28;20037;-72
2023/07/28 02:02:32;;;;;;;0.77;0.77;;;18.10;99.90;;;;;;5027979;28;20408;-72
2023/07/28 02:04:58;;;;;;;0.60;0.60;;;18.20;99.90;;;;;;5029641;28;20029;-72
2023/07/28 02:07:24;;;;;;;1.02;0.95;;;17.80;99.90;;;;;;5017141;28;20048;-72
2023/07/28 02:09:49;;;;;;;1.05;1.02;;;17.80;99.90;;;;;;5029539;28;20048;-72
2023/07/28 02:12:15;;;;;;;0.40;0.40;;;18.00;99.90;;;;;;5018854;28;20044;-72
2023/07/28 02:14:41;;;;;;;1.05;1.00;;;18.10;99.90;;;;;;5014696;28;20052;-72
2023/07/28 02:17:06;;;;;;;0.38;0.38;;;17.80;99.90;;;;;;5037189;28;20035;-72
2023/07/28 02:19:32;;;;;;;0.40;0.40;;;17.90;99.90;;;;;;5035323;28;20134;-72
2023/07/28 02:21:58;;;;;;;0.47;0.47;;;18.30;99.90;;;;;;5034717;28;20037;-72
2023/07/28 02:24:23;;;;;;;1.25;0.73;;;18.00;99.90;;;;;;5028933;28;20127;-72
2023/07/28 02:26:49;;;;;;;1.40;1.30;;;17.90;99.90;;;;;;5025795;28;20037;-72
2023/07/28 02:29:14;;;;;;;1.10;0.75;;;17.80;99.90;;;;;;5027252;28;20424;-73
2023/07/28 02:31:40;;;;;;;0.63;0.63;;;17.90;99.90;;;;;;5023503;28;21084;-72
2023/07/28 02:34:06;;;;;;;1.25;1.17;;;18.10;99.90;;;;;;5029277;28;20052;-72
2023/07/28 02:36:31;;;;;;;1.13;1.13;;;17.80;99.90;;;;;;5016727;28;20045;-72
2023/07/28 02:38:57;;;;;;;0.70;0.70;;;18.00;99.90;;;;;;5027158;28;20106;-72
2023/07/28 02:41:23;;;;;;;0.75;0.75;;;17.90;99.90;;;;;;5026705;28;20037;-72
2023/07/28 02:43:48;;;;;;;0.65;0.47;;;17.80;99.90;;;;;;5013846;28;20111;-73
2023/07/28 02:46:14;;;;;;;0.73;0.73;;;18.10;99.90;;;;;;5017878;28;20096;-72
2023/07/28 02:48:39;;;;;;;0.43;0.43;;;18.10;99.90;;;;;;5029013;28;20040;-72
2023/07/28 02:51:05;;;;;;;0.95;0.85;;;17.90;99.90;;;;;;5031582;28;20033;-72
2023/07/28 02:53:31;;;;;;;2.35;1.17;;;17.90;99.90;;;;;;5034303;28;21042;-72
2023/07/28 02:55:56;;;;;;;1.38;1.27;;;17.90;99.90;;;;;;5048702;28;20479;-72
2023/07/28 02:58:24;;;;;;;0.70;0.70;;;17.80;99.90;;;;;;5031816;28;20037;-72
2023/07/28 03:00:51;;;;;;;0.45;0.45;;;17.80;99.90;;;;;;5033742;28;20501;-72
2023/07/28 03:03:17;;;;;;;0.85;0.85;;;17.80;99.90;;;;;;5025966;28;20072;-72
2023/07/28 03:05:43;;;;;;;1.13;1.02;;;18.20;99.90;;;;;;5030521;28;20043;-72
2023/07/28 03:08:08;;;;;;;5.05;1.35;;;18.00;99.90;;;;;;5016092;28;20496;-72
2023/07/28 03:14:15;;;;;;;1.10;1.10;;;18.00;99.90;;;;;;5030726;28;20031;-72
2023/07/28 03:16:42;;;;;;;0.60;0.60;;;17.90;99.90;;;;;;5031911;28;20051;-72
2023/07/28 03:19:07;;;;;;;0.50;0.50;;;17.80;99.90;;;;;;5017651;28;20041;-72
2023/07/28 03:21:33;;;;;;;1.05;1.00;;;17.90;99.90;;;;;;5032152;28;20052;-72
2023/07/28 03:23:59;;;;;;;0.40;0.40;;;17.80;99.90;;;;;;5013551;28;20562;-72
2023/07/28 03:26:24;;;;;;;0.55;0.55;;;18.00;99.90;;;;;;5032527;28;20033;-72
2023/07/28 03:28:50;;;;;;;0.70;0.70;;;17.90;99.90;;;;;;5025691;28;20160;-72
2023/07/28 03:31:16;;;;;;;0.50;0.50;;;17.80;99.90;;;;;;5025078;28;20037;-72
2023/07/28 03:33:41;;;;;;;0.60;0.60;;;17.90;99.90;;;;;;5027250;28;20093;-72
2023/07/28 03:36:08;;;;;;;0.60;0.60;;;18.10;99.90;;;;;;5030313;28;20443;-72
2023/07/28 03:38:33;;;;;;;1.67;1.58;;;17.80;99.90;;;;;;5016187;28;20048;-72
2023/07/28 03:41:00;;;;;;;1.27;0.60;;;17.80;99.90;;;;;;5009897;28;20127;-72
2023/07/28 03:43:26;;;;;;;0.60;0.60;;;17.90;99.90;;;;;;5026135;28;20126;-72
2023/07/28 03:45:52;;;;;;;0.47;0.45;;;18.00;99.90;;;;;;5025376;28;20658;-72
2023/07/28 03:48:17;;;;;;;0.80;0.80;;;17.90;99.90;;;;;;5032019;28;20041;-72
2023/07/28 03:50:43;;;;;;;0.63;0.60;;;17.80;99.90;;;;;;5014205;28;20131;-72
2023/07/28 03:53:08;;;;;;;0.98;0.90;;;17.90;99.90;;;;;;5026540;28;20041;-73
2023/07/28 03:55:37;;;;;;;0.65;0.65;;;17.80;99.90;;;;;;5030796;28;20068;-72
2023/07/28 03:58:03;;;;;;;0.40;0.40;;;17.90;99.90;;;;;;5023790;28;20054;-72
2023/07/28 04:00:29;;;;;;;0.40;0.40;;;17.80;99.90;;;;;;5030116;28;20032;-73
2023/07/28 04:02:55;;;;;;;1.33;0.75;;;18.00;99.90;;;;;;5036735;28;20107;-73
2023/07/28 04:08:43;;;;;;;1.45;1.30;;;17.70;99.90;;;;;;5035851;28;20537;-72
2023/07/28 04:11:09;;;;;;;0.75;0.75;;;17.90;99.90;;;;;;5012741;28;20030;-73
2023/07/28 04:13:35;;;;;;;0.50;0.50;;;17.90;99.90;;;;;;5033449;28;20095;-73
2023/07/28 04:16:01;;;;;;;0.50;0.50;;;17.90;99.90;;;;;;5023114;28;20049;-73
2023/07/28 04:18:27;;;;;;;0.90;0.90;;;17.90;99.90;;;;;;5028733;28;20124;-73
2023/07/28 04:20:53;;;;;;;0.63;0.63;;;17.90;99.90;;;;;;5018035;28;20561;-73
2023/07/28 04:23:19;;;;;;;0.60;0.60;;;18.10;99.90;;;;;;5028919;28;20041;-73
2023/07/28 04:25:44;;;;;;;0.68;0.68;;;18.20;99.90;;;;;;5012541;28;20461;-74
2023/07/28 04:28:10;;;;;;;0.50;0.50;;;17.90;99.90;;;;;;5037535;28;20041;-73
2023/07/28 04:30:36;;;;;;;0.77;0.77;;;18.10;99.90;;;;;;5033092;28;20073;-74
2023/07/28 04:33:01;;;;;;;1.02;1.02;;;17.80;99.90;;;;;;5034927;28;20041;-73
2023/07/28 04:35:30;;;;;;;0.60;0.60;;;18.20;99.90;;;;;;5013284;28;20041;-72
2023/07/28 04:37:55;;;;;;;0.60;0.60;;;17.90;99.90;;;;;;5031657;28;20038;-73
2023/07/28 04:40:21;;;;;;;0.82;0.82;;;18.20;99.90;;;;;;5038881;28;20373;-73
2023/07/28 04:42:47;;;;;;;0.47;0.47;;;18.00;99.90;;;;;;5036044;28;20396;-73
2023/07/28 04:45:12;;;;;;;0.52;0.52;;;18.10;99.90;;;;;;5019682;28;20052;-71
2023/07/28 04:47:38;;;;;;;0.50;0.50;;;18.10;99.90;;;;;;5030375;28;20045;-72
2023/07/28 04:50:04;;;;;;;1.33;1.23;;;18.00;99.90;;;;;;5032404;28;20413;-73
2023/07/28 04:52:29;;;;;;;0.80;0.80;;;18.10;99.90;;;;;;5032871;28;20402;-73
2023/07/28 04:54:55;;;;;;;0.45;0.45;;;18.00;99.90;;;;;;5036285;28;20052;-73
2023/07/28 04:57:21;;;;;;;0.40;0.40;;;18.20;99.90;;;;;;5019039;28;20079;-73
2023/07/28 04:59:46;;;;;;;0.75;0.50;;;18.00;99.90;;;;;;5030052;28;20288;-73
2023/07/28 05:02:12;;;;;;;0.60;0.60;;;17.90;99.90;;;;;;5021826;28;20045;-73
2023/07/28 05:04:38;;;;;;;1.50;1.40;;;18.40;99.90;;;;;;5035673;28;20039;-73
2023/07/28 05:07:04;;;;;;;0.55;0.55;;;17.90;99.90;;;;;;5042835;28;20044;-73
2023/07/28 05:09:30;;;;;;;1.50;1.40;;;18.10;99.90;;;;;;5019229;28;20539;-73
2023/07/28 05:11:55;;;;;;;0.93;0.93;;;18.20;99.90;;;;;;5036367;28;20070;-74
2023/07/28 05:14:21;;;;;;;0.82;0.82;;;18.20;99.90;;;;;;5033558;28;20049;-72
2023/07/28 05:16:47;;;;;;;0.68;0.68;;;18.00;99.90;;;;;;5035120;28;20041;-73
2023/07/28 05:19:13;;;;;;;0.70;0.70;;;18.30;99.90;;;;;;5035133;28;20444;-70
2023/07/28 05:21:39;;;;;;;0.60;0.50;;;18.10;99.90;;;;;;5034622;28;20432;-73
2023/07/28 05:24:05;;;;;;;1.70;1.33;;;18.10;99.90;;;;;;5021313;28;20036;-71
2023/07/28 05:26:30;;;;;;;1.17;0.80;;;18.20;99.90;;;;;;5038066;28;20454;-72
2023/07/28 05:28:56;;;;;;;0.47;0.47;;;18.20;99.90;;;;;;5047837;28;20041;-73
2023/07/28 05:31:21;;;;;;;0.65;0.65;;;18.10;99.90;;;;;;5035322;28;20037;-73
2023/07/28 05:33:47;;;;;;;1.48;1.30;;;18.20;99.90;;;;;;5040300;28;20071;-73
2023/07/28 05:36:13;;;;;;;0.65;0.65;;;18.00;99.90;;;;;;5047653;28;20116;-70
2023/07/28 05:38:39;;;;;;;1.08;1.00;;;18.40;99.90;;;;;;5028792;28;20053;-72
2023/07/28 05:41:05;;;;;;;1.20;1.17;;;18.20;99.90;;;;;;5045447;28;20047;-71
2023/07/28 05:43:31;;;;;;;0.75;0.75;;;18.20;99.90;;;;;;5053387;28;20759;-72
2023/07/28 05:45:59;;;;;;;1.85;0.75;;;18.20;99.90;;;;;;5041065;28;20037;-71
2023/07/28 05:48:26;;;;;;;0.80;0.80;;;18.50;99.90;;;;;;5049897;28;20170;-71
2023/07/28 05:50:53;;;;;;;1.67;1.58;;;18.50;99.90;;;;;;5038800;28;20037;-73
2023/07/28 05:53:22;;;;;;;0.77;0.77;;;18.60;99.90;;;;;;5051882;28;20119;-72
2023/07/28 05:56:13;;;;;;;1.52;1.42;;;18.60;99.90;;;;;;5043840;28;20048;-72
2023/07/28 05:58:39;;;;;;;1.75;1.45;;;18.30;99.90;;;;;;5045667;28;20053;-72
2023/07/28 06:01:04;;;;;;;1.23;1.13;;;18.60;99.90;;;;;;5049448;28;20060;-73
2023/07/28 06:03:30;;;;;;;0.50;0.50;;;18.60;99.90;;;;;;5043782;28;20088;-72
2023/07/28 06:05:56;;;;;;;0.70;0.70;;;18.50;99.90;;;;;;5048943;28;20045;-72
2023/07/28 06:08:22;;;;;;;1.50;1.40;;;18.30;99.90;;;;;;5049290;28;20125;-73
2023/07/28 06:10:48;;;;;;;0.80;0.80;;;18.50;99.90;;;;;;5033322;28;20120;-73
2023/07/28 06:13:14;;;;;;;0.38;0.38;;;18.80;99.90;;;;;;5052541;28;20503;-72
2023/07/28 06:15:41;;;;;;;1.23;1.17;;;18.90;99.90;;;;;;5049757;28;20045;-72
2023/07/28 06:18:07;;;;;;;0.97;0.97;;;18.60;99.90;;;;;;5048611;28;20036;-73
2023/07/28 06:20:34;;;;;;;1.20;1.15;;;18.70;99.90;;;;;;5041918;28;20524;-72
2023/07/28 06:23:00;;;;;;;1.52;1.23;;;18.60;99.90;;;;;;5050021;28;20111;-72
2023/07/28 06:25:25;;;;;;;0.82;0.82;;;18.80;99.90;;;;;;5048287;28;20560;-72
2023/07/28 06:27:51;;;;;;;1.30;1.20;;;18.50;99.90;;;;;;5052492;28;20041;-72
2023/07/28 06:30:17;;;;;;;1.00;1.00;;;18.50;99.90;;;;;;5049818;28;20128;-72
2023/07/28 06:32:43;;;;;;;1.55;1.10;;;18.80;99.90;;;;;;5027847;28;20033;-73
2023/07/28 06:35:09;;;;;;;0.98;0.75;;;18.40;99.90;;;;;;5047844;28;20037;-73
2023/07/28 06:37:36;;;;;;;0.65;0.65;;;18.70;99.90;;;;;;5039265;28;20059;-72
2023/07/28 06:40:08;;;;;;;1.15;1.15;;;18.70;99.90;;;;;;5048860;28;20047;-72
2023/07/28 06:42:34;;;;;;;0.70;0.70;;;18.80;99.90;;;;;;5030077;28;20049;-73
2023/07/28 06:45:00;;;;;;;0.57;0.57;;;18.80;99.90;;;;;;5029964;28;20401;-72
2023/07/28 06:47:25;;;;;;;2.00;1.35;;;18.80;99.90;;;;;;5040734;28;20327;-73
2023/07/28 06:49:51;;;;;;;0.75;0.60;;;18.60;99.90;;;;;;5036990;28;20042;-73
2023/07/28 06:52:17;;;;;;;1.30;0.82;;;18.90;99.90;;;;;;5046698;28;20469;-73
2023/07/28 06:54:43;;;;;;;0.73;0.73;;;18.60;99.90;;;;;;5042588;28;20477;-72
2023/07/28 06:57:08;;;;;;;1.13;1.02;;;18.60;99.90;;;;;;5033865;28;20088;-72
2023/07/28 06:59:34;;;;;;;0.63;0.63;;;19.00;99.90;;;;;;5039370;28;20576;-72
2023/07/28 07:02:00;;;;;;;0.82;0.82;;;18.90;99.90;;;;;;5025196;28;20037;-71
2023/07/28 07:04:26;;;;;;;1.15;1.15;;;19.10;99.90;;;;;;5027409;28;20040;-70
2023/07/28 07:06:51;;;;;;;0.45;0.45;;;18.80;99.90;;;;;;5028289;28;20052;-69
2023/07/28 07:09:17;;;;;;;0.55;0.55;;;18.80;99.90;;;;;;5030081;28;20107;-70
2023/07/28 07:11:42;;;;;;;0.70;0.70;;;19.20;99.90;;;;;;5023979;28;20485;-70
2023/07/28 07:14:08;;;;;;;1.17;0.85;;;19.10;99.90;;;;;;5031813;28;20400;-70
2023/07/28 07:16:34;;;;;;;0.40;0.40;;;19.20;99.90;;;;;;5034291;28;20146;-70
2023/07/28 07:19:00;;;;;;;0.50;0.50;;;19.50;99.90;;;;;;5033493;28;20523;-70
2023/07/28 07:21:27;;;;;;;0.80;0.80;;;19.50;99.90;;;;;;5025625;28;20029;-70
2023/07/28 07:23:53;;;;;;;0.65;0.65;;;19.90;99.90;;;;;;5029663;28;20065;-70
2023/07/28 07:26:19;;;;;;;0.45;0.45;;;20.00;99.90;;;;;;5046970;28;20032;-70
2023/07/28 07:28:44;;;;;;;0.98;0.98;;;19.80;99.90;;;;;;5050781;28;20384;-70
2023/07/28 07:31:14;;;;;;;0.68;0.68;;;20.10;99.90;;;;;;5027229;28;20039;-70
2023/07/28 07:33:40;;;;;;;1.33;1.15;;;20.30;99.90;;;;;;5030436;28;20044;-70
2023/07/28 07:36:11;;;;;;;1.27;1.17;;;20.80;99.90;;;;;;5033241;28;20044;-70
2023/07/28 07:38:37;;;;;;;1.45;1.45;;;20.90;99.90;;;;;;5031785;28;20068;-70
2023/07/28 07:41:04;;;;;;;1.42;1.10;;;20.90;99.90;;;;;;5028924;28;20403;-70
2023/07/28 07:43:30;;;;;;;1.58;1.35;;;21.40;99.90;;;;;;5025719;28;20436;-70
2023/07/28 07:45:55;;;;;;;1.70;1.60;;;21.20;99.90;;;;;;5026637;28;20048;-70
2023/07/28 07:48:21;;;;;;;1.00;1.00;;;21.60;99.90;;;;;;5025495;28;20041;-70
2023/07/28 07:50:47;;;;;;;6.18;1.90;;;21.70;99.90;;;;;;5027544;28;20077;-70
2023/07/28 07:53:12;;;;;;;0.60;0.60;;;21.60;99.90;;;;;;5030200;28;20059;-70
2023/07/28 07:55:38;;;;;;;0.95;0.95;;;22.10;99.90;;;;;;5026744;28;20416;-73
2023/07/28 07:58:04;;;;;;;0.60;0.60;;;21.70;99.90;;;;;;5030917;28;20048;-70
2023/07/28 08:00:29;;;;;;;0.80;0.80;;;22.20;99.90;;;;;;5031114;28;20048;-71
2023/07/28 08:02:55;;;;;;;1.02;1.00;;;21.80;99.90;;;;;;5031558;28;20033;-71
2023/07/28 08:05:21;;;;;;;1.40;1.35;;;22.40;99.90;;;;;;5034218;28;20040;-71
2023/07/28 08:07:47;;;;;;;1.38;1.08;;;22.40;99.90;;;;;;5028357;28;20041;-73
2023/07/28 08:10:13;;;;;;;0.40;0.40;;;22.10;99.90;;;;;;5016405;28;20048;-71
2023/07/28 08:12:39;;;;;;;0.47;0.47;;;22.00;99.90;;;;;;5028702;28;20389;-71
2023/07/28 08:15:05;;;;;;;0.77;0.77;;;22.00;99.90;;;;;;5018511;28;20582;-71
2023/07/28 08:17:30;;;;;;;1.23;1.10;;;22.20;99.90;;;;;;5029586;28;20092;-72
2023/07/28 08:19:56;;;;;;;0.82;0.82;;;22.40;99.90;;;;;;5032739;28;20568;-72
2023/07/28 08:22:22;;;;;;;0.60;0.60;;;22.10;99.90;;;;;;5034314;28;20037;-72
2023/07/28 08:24:47;;;;;;;0.90;0.88;;;22.50;99.90;;;;;;5034990;28;20048;-72
2023/07/28 08:27:13;;;;;;;0.63;0.63;;;22.70;99.90;;;;;;5032851;28;20033;-72
2023/07/28 08:29:39;;;;;;;1.05;1.05;;;22.70;99.90;;;;;;5018933;28;20383;-72
2023/07/28 08:32:05;;;;;;;0.43;0.43;;;22.80;99.90;;;;;;5041385;28;20448;-72
2023/07/28 08:34:30;;;;;;;0.65;0.65;;;22.80;99.90;;;;;;5034045;28;21318;-72
2023/07/28 08:36:56;;;;;;;0.90;0.85;;;22.70;99.90;;;;;;5033945;28;20059;-72
2023/07/28 08:39:22;;;;;;;0.65;0.65;;;22.60;99.90;;;;;;5029690;28;20527;-72
2023/07/28 08:41:47;;;;;;;0.80;0.80;;;22.70;99.90;;;;;;5035395;28;20112;-72
2023/07/28 08:44:13;;;;;;;0.90;0.90;;;22.70;99.90;;;;;;5035178;28;20036;-72
2023/07/28 08:46:39;;;;;;;1.17;1.13;;;22.80;99.90;;;;;;5030710;28;20132;-72
2023/07/28 08:49:05;;;;;;;0.65;0.65;;;23.00;99.90;;;;;;5035688;28;20136;-72
2023/07/28 08:51:31;;;;;;;0.70;0.70;;;22.70;99.90;;;;;;5033737;28;20056;-72
2023/07/28 08:53:57;;;;;;;1.38;1.00;;;23.10;99.90;;;;;;5033273;28;20051;-72
2023/07/28 08:56:23;;;;;;;0.65;0.65;;;22.80;99.90;;;;;;5022915;28;20057;-72
2023/07/28 08:58:56;;;;;;;2.05;1.27;;;23.20;99.90;;;;;;5038591;28;20037;-71
2023/07/28 09:01:23;;;;;;;0.75;0.75;;;23.10;99.90;;;;;;5038000;28;20033;-73
2023/07/28 09:03:49;;;;;;;0.63;0.63;;;23.40;99.90;;;;;;5023562;28;20128;-73
2023/07/28 09:06:15;;;;;;;1.52;1.42;;;23.30;99.90;;;;;;5030503;28;20118;-72
2023/07/28 09:08:43;;;;;;;1.30;1.20;;;23.40;99.90;;;;;;5038177;28;20045;-72
2023/07/28 09:11:08;;;;;;;0.73;0.73;;;23.60;99.90;;;;;;5028872;28;20127;-71
2023/07/28 09:13:41;;;;;;;0.70;0.70;;;24.20;99.90;;;;;;5028422;28;20043;-72
2023/07/28 09:16:19;;;;;;;1.40;1.30;;;24.20;99.90;;;;;;5047195;28;20032;-72
2023/07/28 09:18:45;;;;;;;1.05;0.70;;;23.90;99.90;;;;;;5039732;28;20135;-72
2023/07/28 09:21:21;;;;;;;0.88;0.88;;;24.40;99.90;;;;;;5044092;28;20047;-71
2023/07/28 09:23:47;;;;;;;1.05;0.95;;;24.00;99.90;;;;;;5048006;28;20412;-71
2023/07/28 09:26:15;;;;;;;3.30;2.35;;;24.30;99.90;;;;;;5029084;28;20044;-70
2023/07/28 09:28:41;;;;;;;0.50;0.50;;;23.90;99.90;;;;;;5034436;28;20116;-70
2023/07/28 09:31:08;;;;;;;0.38;0.38;;;23.90;99.90;;;;;;5048671;28;20049;-70
2023/07/28 09:33:35;;;;;;;0.47;0.47;;;24.20;99.90;;;;;;5055876;28;20593;-70
2023/07/28 09:36:08;;;;;;;;;;;23.70;99.90;;;;;;5057697;28;20662;-76
2023/07/28 09:38:37;;;;;;;0.40;0.40;;;24.10;99.90;;;;;;5039336;28;19935;-70
2023/07/28 09:41:09;;;;;;;0.60;0.60;;;24.10;99.90;;;;;;5053120;28;20126;-70
2023/07/28 09:43:36;;;;;;;0.95;0.95;;;24.00;99.90;;;;;;5044835;28;21670;-70
2023/07/28 09:46:06;;;;;;;0.55;0.55;;;24.20;99.90;;;;;;5048328;28;20594;-70
2023/07/28 09:48:34;;;;;;;0.50;0.50;;;24.20;99.90;;;;;;5048932;28;20053;-70
2023/07/28 09:54:58;;;;;;;0.65;0.65;;;24.80;99.90;;;;;;5545000;23;20033;-71
2023/07/28 09:57:25;;;;;;;1.67;1.38;;;24.60;99.90;;;;;;5041875;28;20045;-71
2023/07/28 09:59:54;;;;;;;1.88;1.77;;;24.50;99.90;;;;;;5039519;28;20553;-71
2023/07/28 10:02:21;;;;;;;1.02;1.02;;;24.50;99.90;;;;;;5039476;28;20119;-71
2023/07/28 10:04:47;;;;;;;1.17;1.05;;;24.70;99.90;;;;;;5021777;28;20069;-71
2023/07/28 10:07:13;;;;;;;2.13;0.88;;;24.60;99.90;;;;;;5003367;28;20080;-71
2023/07/28 10:09:39;;;;;;;0.57;0.57;;;24.90;99.90;;;;;;5010651;28;20065;-71
2023/07/28 10:12:05;;;;;;;0.95;0.85;;;24.90;99.90;;;;;;4989759;28;20037;-71
2023/07/28 10:14:34;;;;;;;1.38;1.05;;;25.00;99.90;;;;;;5010457;28;20440;-70
2023/07/28 10:17:04;;;;;;;1.08;1.08;;;25.50;99.90;;;;;;5009524;28;20120;-71
2023/07/28 10:19:36;;;;;;;1.13;1.13;;;25.60;99.90;;;;;;4998738;28;20185;-71
2023/07/28 10:22:10;;;;;;;1.90;1.80;;;25.50;99.90;;;;;;4988070;28;20044;-71
2023/07/28 10:24:55;;;;;;;1.45;1.35;;;25.50;99.90;;;;;;5006671;28;20084;-71
2023/07/28 10:27:38;;;;;;;1.10;1.10;;;25.60;99.90;;;;;;5004082;28;20400;-71
2023/07/28 10:30:11;;;;;;;1.17;1.08;;;25.50;99.90;;;;;;5010764;28;20037;-71
2023/07/28 10:32:52;;;;;;;0.82;0.82;;;25.40;99.90;;;;;;5006531;28;20468;-71
2023/07/28 10:35:18;;;;;;;0.93;0.80;;;25.40;99.90;;;;;;4989017;28;20128;-71
2023/07/28 10:37:45;;;;;;;3.85;0.90;;;25.90;99.90;;;;;;5008286;28;20147;-73
2023/07/28 10:40:27;;;;;;;1.20;1.10;;;26.00;99.90;;;;;;5010024;28;20076;-71
2023/07/28 10:42:54;;;;;;;1.02;1.02;;;25.40;99.90;;;;;;5016644;28;20056;-70
2023/07/28 10:45:20;;;;;;;0.40;0.40;;;25.40;99.90;;;;;;4991958;28;20030;-71
2023/07/28 10:47:47;;;;;;;0.60;0.60;;;25.50;99.90;;;;;;5005406;28;20405;-71
2023/07/28 10:50:13;;;;;;;1.08;1.08;;;25.90;99.90;;;;;;4992767;28;20052;-71
2023/07/28 10:52:40;;;;;;;0.60;0.60;;;25.80;99.90;;;;;;5008800;28;20075;-70
2023/07/28 10:55:21;;;;;;;0.50;0.50;;;26.30;99.90;;;;;;5005606;28;20045;-70
2023/07/28 10:57:49;;;;;;;0.80;0.80;;;26.10;99.90;;;;;;5005132;28;20057;-70
2023/07/28 11:00:17;;;;;;;0.82;0.60;;;26.20;99.90;;;;;;5007821;28;20068;-70
2023/07/28 11:02:44;;;;;;;0.57;0.57;;;25.70;99.90;;;;;;5008453;28;20037;-71
2023/07/28 11:05:12;;;;;;;0.90;0.90;;;25.90;99.90;;;;;;5005790;28;20527;-73
2023/07/28 11:07:43;;;;;;;1.05;1.05;;;25.90;99.90;;;;;;5007565;28;20045;-71
2023/07/28 11:10:11;;;;;;;0.93;0.93;;;25.90;99.90;;;;;;4998525;28;20046;-71
2023/07/28 11:12:41;;;;;;;0.52;0.52;;;25.70;99.90;;;;;;5003832;28;20041;-71
2023/07/28 11:15:11;;;;;;;0.60;0.60;;;26.10;99.90;;;;;;5003229;28;20049;-71
2023/07/28 11:17:39;;;;;;;0.52;0.52;;;26.10;99.90;;;;;;4997717;28;20184;-71
2023/07/28 11:20:17;;;;;;;0.68;0.68;;;26.50;99.90;;;;;;4999556;28;20469;-71
2023/07/28 11:22:51;;;;;;;0.70;0.70;;;26.20;99.90;;;;;;4982608;28;20038;-71
2023/07/28 11:25:17;;;;;;;0.50;0.50;;;26.60;99.90;;;;;;4998297;28;20092;-71
2023/07/28 11:27:48;;;;;;;0.50;0.50;;;26.70;99.90;;;;;;5002560;28;20519;-70
2023/07/28 11:30:16;;;;;;;0.93;0.93;;;27.00;99.90;;;;;;5003108;28;20417;-70
2023/07/28 11:32:47;;;;;;;0.88;0.88;;;27.10;99.90;;;;;;5004517;28;20725;-71
2023/07/28 11:35:14;;;;;;;0.63;0.60;;;27.10;99.90;;;;;;5003247;28;20133;-71
2023/07/28 11:37:42;;;;;;;1.40;1.30;;;27.20;99.90;;;;;;4992827;28;20068;-71
2023/07/28 11:40:11;;;;;;;0.50;0.50;;;27.20;99.90;;;;;;5002576;28;20037;-73
2023/07/28 11:43:06;;;;;;;1.65;0.90;;;27.30;99.90;;;;;;4987708;28;20038;-71
2023/07/28 11:45:32;;;;;;;0.68;0.60;;;27.30;99.90;;;;;;4987460;28;20054;-71
2023/07/28 11:48:00;;;;;;;0.77;0.77;;;27.20;99.90;;;;;;5004186;28;20042;-71
2023/07/28 11:50:39;;;;;;;0.70;0.70;;;27.50;99.90;;;;;;5001920;28;20554;-71
2023/07/28 11:53:06;;;;;;;0.47;0.47;;;27.50;99.90;;;;;;4998803;28;20037;-71
2023/07/28 11:55:34;;;;;;;0.80;0.80;;;27.00;99.90;;;;;;4990149;28;20054;-71
2023/07/28 11:58:01;;;;;;;0.50;0.50;;;27.30;99.90;;;;;;4996661;28;20316;-71
2023/07/28 12:00:34;;;;;;;0.88;0.88;;;26.90;99.90;;;;;;5009551;28;20046;-71
2023/07/28 12:03:12;;;;;;;0.40;0.40;;;27.10;99.90;;;;;;4998776;28;20065;-71
2023/07/28 12:05:39;;;;;;;1.00;1.00;;;27.00;99.90;;;;;;4984780;28;20053;-71
2023/07/28 12:08:04;;;;;;;0.80;0.80;;;26.70;99.90;;;;;;5002406;28;20045;-71
2023/07/28 12:10:31;;;;;;;0.60;0.60;;;26.70;99.90;;;;;;4997175;28;20038;-71
2023/07/28 12:13:03;;;;;;;1.48;1.30;;;26.10;99.90;;;;;;5000476;28;20034;-71
2023/07/28 12:15:31;;;;;;;1.10;1.10;;;26.20;99.90;;;;;;5001802;28;20181;-71
2023/07/28 12:18:04;;;;;;;0.47;0.47;;;25.60;99.90;;;;;;4999204;28;20089;-71
2023/07/28 12:20:34;;;;;;;0.90;0.90;;;25.40;99.90;;;;;;4998373;28;20111;-71
2023/07/28 12:23:00;;;;;;;0.82;0.82;;;25.70;99.90;;;;;;4996519;28;20068;-71
2023/07/28 12:25:26;;;;;;;1.23;1.13;;;25.20;99.90;;;;;;4993335;28;20100;-71
2023/07/28 12:27:52;;;;;;;1.02;1.02;;;25.30;99.90;;;;;;4999413;28;20083;-71
2023/07/28 12:30:17;;;;;;;1.15;1.08;;;24.80;99.90;;;;;;4998179;28;20048;-71
2023/07/28 12:32:44;;;;;;;0.85;0.85;;;25.10;99.90;;;;;;5000004;28;20513;-71
2023/07/28 12:35:10;;;;;;;0.80;0.80;;;25.10;99.90;;;;;;5001997;28;20080;-72
2023/07/28 12:37:35;;;;;;;2.20;1.50;;;25.20;99.90;;;;;;4997195;28;20084;-71
2023/07/28 12:40:02;;;;;;;2.17;1.73;;;25.40;99.90;;;;;;4979764;28;20038;-70
2023/07/28 12:42:27;;;;;;;0.70;0.70;;;25.70;99.90;;;;;;5000549;28;20077;-71
2023/07/28 12:44:53;;;;;;;1.25;1.25;;;26.10;99.90;;;;;;5016908;28;20062;-71
2023/07/28 12:47:19;;;;;;;1.02;1.02;;;25.90;99.90;;;;;;5001148;28;20030;-71
2023/07/28 12:49:44;;;;;;;2.38;2.17;;;26.20;99.90;;;;;;4984217;28;20574;-72
2023/07/28 12:52:10;;;;;;;2.45;1.55;;;25.90;99.90;;;;;;5004994;28;20040;-74
2023/07/28 12:54:36;;;;;;;1.25;1.25;;;25.80;99.90;;;;;;4998147;28;20512;-73
2023/07/28 12:57:03;;;;;;;0.77;0.77;;;26.10;99.90;;;;;;4979659;28;20064;-72
2023/07/28 12:59:29;;;;;;;1.27;1.27;;;26.10;99.90;;;;;;5005056;28;20057;-73